Terminal Aerodrome Forecast
Issued by NWS

Home | Current Version | Previous Version | Text Only | Print | Product List | Glossary On
Versions: 1 2 3 4 5 6 7 8 9 10 11 12 13 14 15 16
000
FTUS42 KMLB 251000 AAB
TAFSUA
TAF AMD
KSUA 251040Z 2511/2606 29004KT P6SM FEW015 BKN100
     FM251200 31008KT P6SM BKN060
     FM260400 02005KT P6SM SCT010 BKN025=

USA.gov is the U.S. government's official web portal to all federal, state and local government web resources and services.